Time;durP1;ratioP1;P1;durP2;ratioP2;P2;SDS_P1;SDS_P2;PMS_P1;PMS_P2;Temp;Humidity;BMP_temperature;BMP_pressure;BME280_temperature;BME280_humidity;BME280_pressure;Samples;Min_cycle;Max_cycle;Signal;HPM_P1;HPM_P2
2022/12/24 00:00:28;;;;;;;87.90;48.47;;;7.10;99.90;;;;;;4905871;29;20039;-88
2022/12/24 00:02:55;;;;;;;89.22;45.03;;;7.00;99.90;;;;;;4906204;29;20090;-89
2022/12/24 00:05:25;;;;;;;83.47;44.60;;;6.90;99.90;;;;;;4905726;29;20032;-90
2022/12/24 00:07:51;;;;;;;92.63;48.67;;;6.80;99.90;;;;;;4905763;29;20042;-88
2022/12/24 00:10:18;;;;;;;105.10;50.28;;;6.70;99.90;;;;;;4921224;29;20032;-88
2022/12/24 00:12:45;;;;;;;103.57;52.45;;;6.70;99.90;;;;;;4905464;29;20055;-89
2022/12/24 00:15:11;;;;;;;92.85;46.08;;;6.60;99.90;;;;;;4905371;29;20058;-88
2022/12/24 00:17:38;;;;;;;93.85;47.58;;;6.60;99.90;;;;;;4905417;29;20028;-88
2022/12/24 00:20:06;;;;;;;105.80;52.72;;;6.50;99.90;;;;;;4920775;29;20036;-89
2022/12/24 00:22:32;;;;;;;99.28;52.80;;;6.50;99.90;;;;;;4905450;29;20481;-89
2022/12/24 00:24:59;;;;;;;107.47;52.60;;;6.40;99.90;;;;;;4905343;29;20032;-89
2022/12/24 00:27:25;;;;;;;103.65;50.70;;;6.40;99.90;;;;;;4905299;29;20449;-90
2022/12/24 00:29:52;;;;;;;88.35;45.92;;;6.40;99.90;;;;;;4905111;29;20508;-90
2022/12/24 00:32:18;;;;;;;87.22;44.58;;;6.50;99.90;;;;;;4907989;29;20042;-93
2022/12/24 00:34:49;;;;;;;92.93;46.28;;;6.60;99.90;;;;;;4921458;29;20477;-92
2022/12/24 00:37:18;;;;;;;90.28;47.10;;;6.60;99.90;;;;;;4905158;29;20485;-92
2022/12/24 00:39:45;;;;;;;85.80;44.45;;;6.70;99.90;;;;;;4905575;29;20058;-90
2022/12/24 00:42:12;;;;;;;77.57;40.67;;;6.60;99.90;;;;;;4905027;29;20028;-92
2022/12/24 00:44:42;;;;;;;76.45;40.33;;;6.50;99.90;;;;;;4905177;29;20174;-92
2022/12/24 00:47:08;;;;;;;87.72;44.75;;;6.50;99.90;;;;;;4936757;29;20040;-92
2022/12/24 00:49:35;;;;;;;92.38;50.13;;;6.40;99.90;;;;;;4905211;29;20032;-91
2022/12/24 00:52:05;;;;;;;101.30;51.60;;;6.30;99.90;;;;;;4920635;29;20035;-92
2022/12/24 00:54:34;;;;;;;100.03;52.70;;;6.20;99.90;;;;;;4904794;29;20040;-91
2022/12/24 00:57:01;;;;;;;94.97;52.55;;;6.10;99.90;;;;;;4904408;29;20193;-91
2022/12/24 00:59:28;;;;;;;117.32;60.38;;;6.10;99.90;;;;;;4904724;29;20508;-92
2022/12/24 01:01:54;;;;;;;120.43;60.28;;;6.00;99.90;;;;;;4936671;29;20032;-93
2022/12/24 01:07:06;;;;;;;167.95;73.70;;;6.10;99.90;;;;;;4952139;29;20087;-92
2022/12/24 01:09:33;;;;;;;206.85;82.93;;;6.10;99.90;;;;;;4904593;29;20501;-91
2022/12/24 01:12:06;;;;;;;273.42;84.55;;;6.10;99.90;;;;;;4920554;29;20047;-93
2022/12/24 01:14:33;;;;;;;318.17;83.65;;;6.10;99.90;;;;;;4920255;29;20028;-92
2022/12/24 01:17:00;;;;;;;289.60;74.50;;;6.20;99.90;;;;;;4935530;29;20043;-92
2022/12/24 01:19:27;;;;;;;324.83;84.40;;;6.20;99.90;;;;;;4919785;29;20123;-92
2022/12/24 01:21:54;;;;;;;129.43;57.92;;;6.20;99.90;;;;;;4919484;29;20043;-92
2022/12/24 01:24:21;;;;;;;142.23;61.63;;;6.10;99.90;;;;;;4919639;29;20031;-91
2022/12/24 01:26:47;;;;;;;121.32;57.92;;;6.10;99.90;;;;;;4919350;29;20116;-91
2022/12/24 01:29:15;;;;;;;130.35;62.10;;;6.00;99.90;;;;;;4919076;29;20048;-93
2022/12/24 01:31:42;;;;;;;144.85;63.50;;;6.00;99.90;;;;;;4935291;29;20541;-91
2022/12/24 01:34:08;;;;;;;164.52;65.22;;;6.00;99.90;;;;;;4919692;29;20453;-91
2022/12/24 01:36:35;;;;;;;129.23;58.90;;;5.90;99.90;;;;;;4920116;29;20499;-92
2022/12/24 01:39:03;;;;;;;175.25;63.53;;;5.90;99.90;;;;;;4919542;29;20083;-93
2022/12/24 01:44:26;;;;;;;231.52;70.65;;;5.90;99.90;;;;;;4935070;29;20032;-92
2022/12/24 01:47:20;;;;;;;168.80;65.15;;;5.90;99.90;;;;;;4919234;29;20031;-91
2022/12/24 01:50:00;;;;;;;165.13;63.33;;;5.80;99.90;;;;;;4919349;29;20051;-91
2022/12/24 01:52:35;;;;;;;324.00;78.90;;;5.80;99.90;;;;;;4919542;29;20208;-91
2022/12/24 01:55:16;;;;;;;245.43;74.57;;;5.80;99.90;;;;;;4920142;29;20046;-91
2022/12/24 01:57:52;;;;;;;305.35;91.10;;;5.80;99.90;;;;;;4919803;29;20082;-92
2022/12/24 02:00:19;;;;;;;139.32;63.13;;;5.80;99.90;;;;;;4920061;29;20050;-91
2022/12/24 02:02:48;;;;;;;127.43;58.35;;;5.80;99.90;;;;;;4904339;29;20026;-91
2022/12/24 02:05:36;;;;;;;119.75;56.22;;;5.80;99.90;;;;;;4904211;29;20394;-92
2022/12/24 02:08:04;;;;;;;109.10;51.97;;;5.70;99.90;;;;;;4919783;29;20031;-91
2022/12/24 02:10:31;;;;;;;216.75;75.57;;;5.70;99.90;;;;;;4907535;29;20031;-91
2022/12/24 02:13:00;;;;;;;220.10;72.20;;;5.70;99.90;;;;;;4907826;29;20039;-92
2022/12/24 02:15:32;;;;;;;120.65;57.63;;;5.70;99.90;;;;;;4923467;29;20110;-92
2022/12/24 02:18:13;;;;;;;141.68;59.80;;;5.70;99.90;;;;;;4908065;29;20028;-91
2022/12/24 02:20:58;;;;;;;105.45;52.95;;;5.60;99.90;;;;;;4923181;29;20102;-92
2022/12/24 02:24:03;;;;;;;127.15;60.38;;;5.70;99.90;;;;;;4907756;29;20032;-91
2022/12/24 02:26:54;;;;;;;127.38;55.53;;;5.60;99.90;;;;;;4955224;29;20114;-91
2022/12/24 02:29:51;;;;;;;109.43;50.03;;;5.60;99.90;;;;;;4907295;29;20043;-91
2022/12/24 02:32:46;;;;;;;114.63;53.92;;;5.70;99.90;;;;;;4955189;29;20031;-90
2022/12/24 02:35:28;;;;;;;128.85;59.42;;;5.60;99.90;;;;;;4897592;29;20040;-91
2022/12/24 02:38:10;;;;;;;119.32;57.90;;;5.50;99.90;;;;;;4907394;29;20032;-90
2022/12/24 02:40:43;;;;;;;103.32;53.38;;;5.60;99.90;;;;;;4938848;29;20144;-91
2022/12/24 02:43:15;;;;;;;120.63;58.08;;;5.60;99.90;;;;;;4923001;29;20038;-92
2022/12/24 02:45:46;;;;;;;157.05;72.85;;;5.50;99.90;;;;;;4938908;29;20031;-90
2022/12/24 02:48:17;;;;;;;303.17;85.45;;;5.50;99.90;;;;;;4923030;29;20054;-92
2022/12/24 02:51:08;;;;;;;153.18;63.28;;;5.40;99.90;;;;;;4922921;29;20036;-93
2022/12/24 02:53:37;;;;;;;201.63;78.50;;;5.50;99.90;;;;;;4938883;29;20039;-92
2022/12/24 02:56:39;;;;;;;141.70;65.40;;;5.50;99.90;;;;;;4907135;29;20028;-93
2022/12/24 02:59:23;;;;;;;133.60;64.72;;;5.50;99.90;;;;;;4900560;29;20474;-90
2022/12/24 03:02:24;;;;;;;116.50;58.83;;;5.50;99.90;;;;;;4906982;29;20075;-90
2022/12/24 03:05:27;;;;;;;117.15;60.72;;;5.50;99.90;;;;;;4938445;29;20035;-90
2022/12/24 03:08:23;;;;;;;135.40;65.78;;;5.50;99.90;;;;;;4907023;29;20043;-92
2022/12/24 03:11:08;;;;;;;111.53;55.00;;;5.40;99.90;;;;;;4887923;29;20068;-91
2022/12/24 03:13:35;;;;;;;103.00;52.97;;;5.40;99.90;;;;;;4938394;29;20031;-92
2022/12/24 03:16:23;;;;;;;110.38;55.60;;;5.40;99.90;;;;;;4906765;29;20039;-90
2022/12/24 03:18:53;;;;;;;109.80;55.72;;;5.40;99.90;;;;;;4922580;29;20062;-91
2022/12/24 03:21:38;;;;;;;119.35;60.42;;;5.30;99.90;;;;;;4937389;29;20057;-90
2022/12/24 03:24:05;;;;;;;105.72;53.50;;;5.30;99.90;;;;;;4922425;29;20046;-92
2022/12/24 03:26:33;;;;;;;100.32;49.85;;;5.20;99.90;;;;;;4938043;29;20034;-91
2022/12/24 03:29:08;;;;;;;109.10;53.92;;;5.20;99.90;;;;;;4906325;29;20071;-92
2022/12/24 03:31:43;;;;;;;126.28;59.60;;;5.10;99.90;;;;;;4937974;29;20059;-91
2022/12/24 03:34:19;;;;;;;146.93;66.38;;;5.10;99.90;;;;;;4906510;29;20459;-92
2022/12/24 03:36:47;;;;;;;97.43;51.15;;;5.10;99.90;;;;;;4938032;29;20032;-90
2022/12/24 03:39:14;;;;;;;111.72;55.42;;;5.10;99.90;;;;;;4906207;29;20032;-90
2022/12/24 03:41:41;;;;;;;94.85;48.70;;;5.10;99.90;;;;;;4906163;29;20036;-91
2022/12/24 03:44:07;;;;;;;116.57;56.97;;;5.00;99.90;;;;;;4906320;29;20031;-91
2022/12/24 03:46:34;;;;;;;95.30;48.95;;;5.00;99.90;;;;;;4937726;29;20043;-92
2022/12/24 03:49:01;;;;;;;107.07;53.15;;;4.90;99.90;;;;;;4906283;29;20027;-93
2022/12/24 03:51:27;;;;;;;104.85;51.85;;;4.90;99.90;;;;;;4938065;29;20031;-90
2022/12/24 03:53:56;;;;;;;104.70;51.38;;;5.00;99.90;;;;;;4906222;29;20024;-92
2022/12/24 03:56:23;;;;;;;101.88;51.38;;;5.00;99.90;;;;;;4921810;29;20039;-91
2022/12/24 03:58:50;;;;;;;108.78;51.33;;;4.90;99.90;;;;;;4937456;29;20087;-92
2022/12/24 04:01:17;;;;;;;96.45;49.20;;;4.90;99.90;;;;;;4921584;29;20043;-91
2022/12/24 04:03:44;;;;;;;104.72;49.97;;;4.90;99.90;;;;;;4905926;29;20028;-92
2022/12/24 04:06:14;;;;;;;93.15;46.10;;;4.90;99.90;;;;;;4921533;29;20032;-92
2022/12/24 04:08:41;;;;;;;92.05;47.47;;;5.00;99.90;;;;;;4937357;29;20035;-90
2022/12/24 04:11:17;;;;;;;97.03;49.58;;;4.90;99.90;;;;;;4905630;29;20075;-90
2022/12/24 04:13:47;;;;;;;110.72;54.50;;;4.90;99.90;;;;;;4905477;29;20038;-91
2022/12/24 04:16:16;;;;;;;90.03;45.97;;;4.80;99.90;;;;;;4905860;29;20039;-91
2022/12/24 04:18:43;;;;;;;98.13;48.67;;;4.80;99.90;;;;;;4937426;29;20030;-93
2022/12/24 04:21:10;;;;;;;93.70;50.33;;;4.80;99.90;;;;;;4905777;29;20461;-92
2022/12/24 04:23:39;;;;;;;86.57;45.15;;;4.80;99.90;;;;;;4937244;29;20477;-91
2022/12/24 04:26:09;;;;;;;85.55;44.80;;;4.70;99.90;;;;;;4905468;29;20027;-92
2022/12/24 04:28:36;;;;;;;80.15;42.40;;;4.70;99.90;;;;;;4936599;29;20052;-93
2022/12/24 04:31:06;;;;;;;86.00;46.30;;;4.70;99.90;;;;;;4905407;29;20031;-93
2022/12/24 04:33:33;;;;;;;86.22;46.38;;;4.70;99.90;;;;;;4936912;29;20027;-92
2022/12/24 04:36:02;;;;;;;76.85;41.65;;;4.60;99.90;;;;;;4905253;29;20032;-91
2022/12/24 04:38:29;;;;;;;77.38;42.33;;;4.70;99.90;;;;;;4905236;29;20114;-92
2022/12/24 04:41:04;;;;;;;75.57;42.50;;;4.70;99.90;;;;;;4905199;29;20035;-92
2022/12/24 04:43:31;;;;;;;77.03;43.40;;;4.60;99.90;;;;;;4905355;29;20038;-92
2022/12/24 04:46:13;;;;;;;80.55;43.88;;;4.70;99.90;;;;;;4905259;29;20051;-91
2022/12/24 04:48:45;;;;;;;89.00;47.60;;;4.70;99.90;;;;;;4905106;29;20133;-90
2022/12/24 04:51:13;;;;;;;81.32;44.45;;;4.70;99.90;;;;;;4921548;29;20070;-92
2022/12/24 04:53:41;;;;;;;90.90;49.10;;;4.70;99.90;;;;;;4905754;29;20087;-91
2022/12/24 04:56:16;;;;;;;90.40;50.60;;;4.60;99.90;;;;;;4937253;29;20486;-93
2022/12/24 04:58:43;;;;;;;94.18;50.75;;;4.60;99.90;;;;;;4936385;29;20035;-93
2022/12/24 05:01:35;;;;;;;75.13;42.03;;;4.60;99.90;;;;;;4904873;29;20039;-91
2022/12/24 05:04:02;;;;;;;75.25;42.90;;;4.60;99.90;;;;;;4904824;29;20070;-92
2022/12/24 05:06:31;;;;;;;72.95;42.40;;;4.60;99.90;;;;;;4904771;29;20035;-93
2022/12/24 05:08:58;;;;;;;74.60;41.92;;;4.60;99.90;;;;;;4936645;29;20031;-91
2022/12/24 05:11:25;;;;;;;67.70;41.08;;;4.60;99.90;;;;;;4904861;29;20118;-92
2022/12/24 05:13:52;;;;;;;80.65;44.42;;;4.60;99.90;;;;;;4921102;29;20523;-92
2022/12/24 05:16:21;;;;;;;77.88;42.63;;;4.60;99.90;;;;;;4904530;29;20086;-92
2022/12/24 05:18:48;;;;;;;83.45;47.13;;;4.60;99.90;;;;;;4936134;29;20067;-91
2022/12/24 05:21:17;;;;;;;97.82;52.75;;;4.60;99.90;;;;;;4904467;29;20083;-90
2022/12/24 05:26:35;;;;;;;77.97;44.28;;;4.50;99.90;;;;;;4952577;28;20485;-92
2022/12/24 05:29:05;;;;;;;83.65;46.95;;;4.50;99.90;;;;;;4935884;29;20063;-92
2022/12/24 05:31:39;;;;;;;81.22;46.45;;;4.50;99.90;;;;;;4917191;29;20056;-91
2022/12/24 05:34:16;;;;;;;85.57;47.47;;;4.50;99.90;;;;;;4917786;29;20087;-92
2022/12/24 05:36:44;;;;;;;84.63;48.65;;;4.50;99.90;;;;;;4884187;29;20066;-91
2022/12/24 05:39:15;;;;;;;73.78;44.22;;;4.50;99.90;;;;;;4916865;29;20032;-91
2022/12/24 05:41:42;;;;;;;82.53;48.75;;;4.50;99.90;;;;;;4916708;29;20044;-92
2022/12/24 05:44:09;;;;;;;76.20;44.97;;;4.60;99.90;;;;;;4916313;29;20589;-91
2022/12/24 05:46:36;;;;;;;83.65;48.10;;;4.60;99.90;;;;;;4901124;29;20048;-93
2022/12/24 05:49:02;;;;;;;78.10;45.13;;;4.60;99.90;;;;;;4916686;29;20028;-92
2022/12/24 05:51:39;;;;;;;80.85;45.40;;;4.60;99.90;;;;;;4901033;29;20040;-92
2022/12/24 05:54:05;;;;;;;82.60;45.35;;;4.60;99.90;;;;;;4901049;29;20042;-91
2022/12/24 05:56:32;;;;;;;81.88;46.03;;;4.70;99.90;;;;;;4901067;29;20101;-93
2022/12/24 05:58:59;;;;;;;86.43;50.78;;;4.70;99.90;;;;;;4901049;29;20035;-91
2022/12/24 06:01:29;;;;;;;77.20;47.55;;;4.80;99.90;;;;;;4901205;29;20510;-92
2022/12/24 06:03:56;;;;;;;84.35;48.08;;;4.80;99.90;;;;;;4885496;29;20028;-91
2022/12/24 06:06:27;;;;;;;76.28;43.28;;;4.80;99.90;;;;;;4916737;29;20042;-91
2022/12/24 06:08:55;;;;;;;70.13;41.78;;;4.80;99.90;;;;;;4916512;29;20039;-92
2022/12/24 06:11:25;;;;;;;77.57;45.15;;;4.90;99.90;;;;;;4916540;29;20039;-92
2022/12/24 06:13:52;;;;;;;66.93;40.60;;;5.00;99.90;;;;;;4916865;29;20087;-92
2022/12/24 06:16:21;;;;;;;68.57;41.42;;;5.00;99.90;;;;;;4916546;29;20032;-91
2022/12/24 06:18:48;;;;;;;64.82;38.83;;;5.10;99.90;;;;;;4916338;29;20032;-92
2022/12/24 06:21:15;;;;;;;65.15;39.47;;;5.10;99.90;;;;;;4900697;29;20036;-92
2022/12/24 06:23:43;;;;;;;64.82;40.92;;;5.10;99.90;;;;;;4916310;29;20032;-91
2022/12/24 06:26:14;;;;;;;65.80;39.55;;;5.20;99.90;;;;;;4916441;29;20111;-92
2022/12/24 06:28:42;;;;;;;60.00;36.67;;;5.20;99.90;;;;;;4916480;29;20052;-93
2022/12/24 06:31:15;;;;;;;58.53;37.55;;;5.20;99.90;;;;;;4916422;29;20032;-91
2022/12/24 06:33:42;;;;;;;65.60;40.47;;;5.30;99.90;;;;;;4916272;29;20036;-91
2022/12/24 06:36:22;;;;;;;64.15;40.50;;;5.30;99.90;;;;;;4916234;29;20345;-91
2022/12/24 06:38:50;;;;;;;80.88;47.97;;;5.30;99.90;;;;;;4916398;29;20028;-92
2022/12/24 06:41:18;;;;;;;79.35;46.72;;;5.40;99.90;;;;;;4916289;29;20044;-92
2022/12/24 06:43:47;;;;;;;68.88;42.58;;;5.40;99.90;;;;;;4916640;29;20039;-92
2022/12/24 06:46:14;;;;;;;64.00;41.00;;;5.40;99.90;;;;;;4916128;29;20043;-93
2022/12/24 06:48:43;;;;;;;64.47;39.47;;;5.60;99.90;;;;;;4900569;29;20028;-92
2022/12/24 06:51:11;;;;;;;59.25;36.05;;;5.90;99.90;;;;;;4919145;29;20036;-93
2022/12/24 06:53:38;;;;;;;64.30;38.75;;;6.10;99.90;;;;;;4916446;29;20106;-91
2022/12/24 06:56:10;;;;;;;58.65;38.42;;;6.40;99.90;;;;;;4901762;29;20032;-91
2022/12/24 06:58:37;;;;;;;56.25;38.20;;;6.60;99.90;;;;;;4919691;29;20028;-92
2022/12/24 07:01:06;;;;;;;57.25;38.15;;;6.70;99.90;;;;;;4919275;29;20051;-91
2022/12/24 07:03:33;;;;;;;50.25;36.70;;;6.80;99.90;;;;;;4919396;29;20086;-94
2022/12/24 07:06:00;;;;;;;51.25;36.63;;;6.90;99.90;;;;;;4919546;29;20402;-92
2022/12/24 07:08:27;;;;;;;48.30;35.17;;;7.00;99.90;;;;;;4903854;29;20036;-91
2022/12/24 07:10:53;;;;;;;53.58;39.05;;;7.10;99.90;;;;;;4919335;29;20032;-91
2022/12/24 07:13:20;;;;;;;55.35;40.78;;;7.30;99.90;;;;;;4903611;29;20020;-92
2022/12/24 07:15:55;;;;;;;55.55;42.13;;;7.40;99.90;;;;;;4919471;29;20047;-93
2022/12/24 07:18:22;;;;;;;55.33;41.90;;;7.60;99.90;;;;;;4903463;29;20426;-91
2022/12/24 07:20:48;;;;;;;50.72;38.92;;;7.80;99.90;;;;;;4903959;29;20067;-91
2022/12/24 07:23:15;;;;;;;55.75;41.45;;;8.00;99.90;;;;;;4903154;29;20028;-91
2022/12/24 07:25:42;;;;;;;51.05;41.15;;;8.10;99.90;;;;;;4903588;29;20032;-94
2022/12/24 07:28:09;;;;;;;52.95;42.45;;;8.30;99.90;;;;;;4918858;29;20493;-92
2022/12/24 07:30:35;;;;;;;55.15;42.63;;;8.50;99.90;;;;;;4918978;29;20036;-92
2022/12/24 07:33:02;;;;;;;55.60;44.97;;;8.70;99.90;;;;;;4903424;29;20047;-93
2022/12/24 07:35:32;;;;;;;58.63;44.22;;;8.90;99.90;;;;;;4918895;29;20040;-92
2022/12/24 07:37:58;;;;;;;55.97;44.15;;;9.10;99.90;;;;;;4887785;29;20099;-91
2022/12/24 07:40:25;;;;;;;58.33;45.33;;;9.30;99.90;;;;;;4918665;29;20193;-93
2022/12/24 07:42:53;;;;;;;57.05;43.78;;;9.60;99.90;;;;;;4903244;29;20055;-92
2022/12/24 07:45:20;;;;;;;57.90;44.63;;;9.80;99.90;;;;;;4903295;29;20474;-92
2022/12/24 07:47:46;;;;;;;58.03;44.53;;;9.80;99.90;;;;;;4903047;29;20446;-93
2022/12/24 07:50:13;;;;;;;55.25;42.72;;;9.80;99.90;;;;;;4902837;29;20086;-92
2022/12/24 07:52:40;;;;;;;63.13;46.85;;;9.90;99.90;;;;;;4902924;29;20028;-93
2022/12/24 07:55:06;;;;;;;59.45;45.17;;;10.10;99.90;;;;;;4902661;29;20028;-92
2022/12/24 07:57:33;;;;;;;58.03;44.90;;;10.30;99.90;;;;;;4903279;29;20032;-92
2022/12/24 08:00:03;;;;;;;59.60;46.00;;;10.60;99.90;;;;;;4918599;29;20031;-91
2022/12/24 08:02:38;;;;;;;49.97;40.33;;;10.80;99.90;;;;;;4904043;29;20048;-91
2022/12/24 08:05:05;;;;;;;54.35;41.00;;;11.00;99.90;;;;;;4918387;29;20060;-94
2022/12/24 08:07:32;;;;;;;55.90;41.83;;;11.20;99.90;;;;;;4899556;29;20031;-93
2022/12/24 08:09:58;;;;;;;48.92;39.42;;;11.40;99.90;;;;;;4918238;29;20064;-92
2022/12/24 08:12:25;;;;;;;57.20;43.08;;;11.70;99.90;;;;;;4902615;29;20490;-94
2022/12/24 08:14:52;;;;;;;57.03;42.17;;;11.90;99.90;;;;;;4902496;29;20115;-93
2022/12/24 08:17:18;;;;;;;55.72;43.25;;;12.10;99.90;;;;;;4902523;29;20032;-93
2022/12/24 08:19:45;;;;;;;58.40;43.35;;;12.10;99.90;;;;;;4902246;29;20024;-92
2022/12/24 08:22:11;;;;;;;66.95;44.38;;;12.10;99.90;;;;;;4902447;29;20036;-93
2022/12/24 08:24:38;;;;;;;64.88;46.92;;;12.10;99.90;;;;;;4902412;29;20056;-91
2022/12/24 08:27:05;;;;;;;65.55;45.58;;;12.30;99.90;;;;;;4902362;29;20051;-93
2022/12/24 08:29:35;;;;;;;62.42;44.90;;;12.40;99.90;;;;;;4917846;29;20084;-92
2022/12/24 08:32:01;;;;;;;55.92;42.53;;;12.60;99.90;;;;;;4918048;29;20028;-92
2022/12/24 08:34:28;;;;;;;52.45;37.88;;;12.70;99.90;;;;;;4902113;29;20032;-93
2022/12/24 08:36:55;;;;;;;47.83;34.38;;;13.00;99.90;;;;;;4886474;29;20099;-92
2022/12/24 08:39:22;;;;;;;43.20;31.90;;;13.20;99.90;;;;;;4902188;29;20059;-93
2022/12/24 08:41:48;;;;;;;33.88;27.75;;;13.30;99.90;;;;;;4901965;29;20043;-92
2022/12/24 08:44:15;;;;;;;36.63;27.60;;;13.50;99.90;;;;;;4902018;29;20494;-91
2022/12/24 08:46:42;;;;;;;36.47;26.77;;;13.70;99.90;;;;;;4886519;29;20040;-92
2022/12/24 08:49:08;;;;;;;24.77;22.08;;;13.80;99.90;;;;;;4902182;29;20114;-91
2022/12/24 08:51:35;;;;;;;22.00;19.67;;;14.00;99.90;;;;;;4901896;29;20127;-92
2022/12/24 08:54:02;;;;;;;22.35;18.30;;;14.20;99.90;;;;;;4901917;29;20032;-93
2022/12/24 08:56:28;;;;;;;24.08;18.50;;;14.30;99.90;;;;;;4901869;29;20036;-93
2022/12/24 08:58:55;;;;;;;19.52;17.70;;;14.40;99.90;;;;;;4901636;29;20032;-94
2022/12/24 09:01:22;;;;;;;18.17;16.48;;;14.50;99.90;;;;;;4901867;29;20047;-93
2022/12/24 09:03:49;;;;;;;18.05;16.20;;;14.70;99.90;;;;;;4917181;29;20052;-93
2022/12/24 09:06:18;;;;;;;17.48;15.43;;;14.70;99.90;;;;;;4901523;29;20032;-92
2022/12/24 09:08:45;;;;;;;16.55;14.75;;;14.90;99.90;;;;;;4917243;29;20064;-93
2022/12/24 09:11:15;;;;;;;15.98;14.38;;;15.00;99.90;;;;;;4917262;29;20528;-92
2022/12/24 09:13:43;;;;;;;15.77;14.52;;;15.10;99.90;;;;;;4917340;29;20064;-91
2022/12/24 09:16:11;;;;;;;16.50;15.00;;;15.10;99.90;;;;;;4917214;29;20036;-93
2022/12/24 09:18:38;;;;;;;15.10;14.02;;;15.20;99.90;;;;;;4916569;29;20035;-92
2022/12/24 09:21:08;;;;;;;16.00;14.55;;;15.20;99.90;;;;;;4917310;29;20386;-91
2022/12/24 09:23:40;;;;;;;17.05;15.52;;;15.30;99.90;;;;;;4917158;29;20091;-93
2022/12/24 09:26:17;;;;;;;18.13;16.52;;;15.30;99.90;;;;;;4916824;29;20520;-92
2022/12/24 09:28:44;;;;;;;18.00;16.17;;;15.40;99.90;;;;;;4916758;29;20062;-92
2022/12/24 09:31:12;;;;;;;16.40;14.95;;;15.50;99.90;;;;;;4901190;29;20118;-94
2022/12/24 09:33:42;;;;;;;19.25;16.88;;;15.70;99.90;;;;;;4901170;29;20040;-93
2022/12/24 09:36:09;;;;;;;17.63;15.85;;;15.80;99.90;;;;;;4916970;29;20115;-93
2022/12/24 09:38:37;;;;;;;17.35;15.65;;;16.20;99.90;;;;;;4916927;29;20024;-92
2022/12/24 09:41:12;;;;;;;19.58;15.57;;;16.30;99.90;;;;;;4917242;29;20044;-92
2022/12/24 09:43:43;;;;;;;16.90;15.10;;;16.40;99.90;;;;;;4916904;29;20512;-92
2022/12/24 09:46:29;;;;;;;20.20;16.52;;;16.40;99.90;;;;;;4916936;29;20036;-91
2022/12/24 09:49:02;;;;;;;17.83;16.08;;;16.30;99.90;;;;;;4917023;29;20040;-93
2022/12/24 09:51:40;;;;;;;21.15;18.92;;;16.30;99.90;;;;;;4917294;29;20043;-91
2022/12/24 09:54:23;;;;;;;17.70;15.95;;;16.20;99.90;;;;;;4916685;29;20039;-93
2022/12/24 09:56:53;;;;;;;20.00;15.70;;;16.00;99.90;;;;;;4916827;29;20039;-91
2022/12/24 09:59:24;;;;;;;17.63;14.55;;;16.00;99.90;;;;;;4916992;29;20398;-91
2022/12/24 10:01:53;;;;;;;16.70;15.25;;;16.00;99.90;;;;;;4916608;29;20048;-94
2022/12/24 10:04:26;;;;;;;17.08;15.50;;;16.00;99.90;;;;;;4916801;29;20103;-92
2022/12/24 10:07:10;;;;;;;18.13;16.30;;;16.10;99.90;;;;;;4916750;29;20036;-92
2022/12/24 10:09:49;;;;;;;18.60;16.63;;;16.20;99.90;;;;;;4916308;29;20111;-92
2022/12/24 10:12:30;;;;;;;17.65;15.35;;;16.40;99.90;;;;;;4916515;29;20130;-91
2022/12/24 10:15:21;;;;;;;16.02;14.55;;;16.70;99.90;;;;;;4916767;29;20028;-92
2022/12/24 10:18:03;;;;;;;16.33;14.82;;;16.60;99.90;;;;;;4900806;29;20123;-93
2022/12/24 10:20:50;;;;;;;16.92;15.15;;;16.70;99.90;;;;;;4916445;29;20099;-91
2022/12/24 10:23:21;;;;;;;16.90;15.18;;;16.90;99.90;;;;;;4916487;29;20032;-92
2022/12/24 10:26:22;;;;;;;16.80;15.50;;;16.90;99.90;;;;;;4916288;29;20036;-92
2022/12/24 10:29:28;;;;;;;17.65;15.85;;;16.90;99.90;;;;;;4882737;29;20056;-92
2022/12/24 10:32:07;;;;;;;33.10;24.00;;;16.80;99.90;;;;;;4845127;29;20116;-94
2022/12/24 10:35:05;;;;;;;23.15;19.95;;;16.60;99.90;;;;;;4845247;29;20385;-92
2022/12/24 10:37:32;;;;;;;20.20;18.20;;;16.60;99.90;;;;;;4775943;29;20047;-95
2022/12/24 10:40:02;;;;;;;18.58;16.55;;;16.50;99.90;;;;;;4801534;30;20084;-94
2022/12/24 10:42:41;;;;;;;17.33;15.73;;;16.60;99.90;;;;;;4779981;29;20049;-94
2022/12/24 10:45:15;;;;;;;18.50;15.43;;;16.50;99.90;;;;;;4790247;30;20035;-93
2022/12/24 10:47:46;;;;;;;18.10;16.23;;;16.50;99.90;;;;;;4775149;29;20145;-93
2022/12/24 10:50:22;;;;;;;16.92;15.23;;;16.60;99.90;;;;;;4790072;29;20417;-93
2022/12/24 10:52:54;;;;;;;19.23;15.20;;;16.70;99.90;;;;;;4789977;29;20031;-95
2022/12/24 10:55:23;;;;;;;17.85;15.93;;;16.60;99.90;;;;;;4789855;29;20532;-92
2022/12/24 10:58:06;;;;;;;16.98;14.77;;;16.50;99.90;;;;;;4775193;29;20031;-92
2022/12/24 11:00:48;;;;;;;16.73;15.05;;;16.40;99.90;;;;;;4774945;30;20066;-95
2022/12/24 11:03:18;;;;;;;19.58;15.48;;;16.30;99.90;;;;;;4830547;29;20045;-92
2022/12/24 11:05:45;;;;;;;19.33;14.98;;;16.30;99.90;;;;;;4847449;29;20033;-92
2022/12/24 11:08:19;;;;;;;18.60;15.20;;;16.40;99.90;;;;;;4847254;29;20047;-93
2022/12/24 11:11:15;;;;;;;22.70;16.38;;;16.40;99.90;;;;;;4847245;29;20060;-92
2022/12/24 11:13:55;;;;;;;18.52;15.10;;;16.50;99.90;;;;;;4846685;29;20040;-93
2022/12/24 11:16:32;;;;;;;22.13;14.40;;;16.60;99.90;;;;;;4919250;29;20036;-92
2022/12/24 11:19:03;;;;;;;20.63;15.70;;;16.60;99.90;;;;;;4919322;29;20035;-93
2022/12/24 11:21:36;;;;;;;15.05;13.02;;;16.70;99.90;;;;;;4903860;29;20055;-93
2022/12/24 11:24:12;;;;;;;15.02;13.82;;;16.70;99.90;;;;;;4919281;29;20059;-92
2022/12/24 11:26:42;;;;;;;17.67;14.43;;;16.60;99.90;;;;;;4919199;29;20036;-93
2022/12/24 11:29:24;;;;;;;18.83;14.73;;;16.70;99.90;;;;;;4903297;29;20075;-93
2022/12/24 11:32:19;;;;;;;15.52;13.95;;;16.80;99.90;;;;;;4919270;29;20084;-92
2022/12/24 11:34:48;;;;;;;17.30;13.77;;;16.60;99.90;;;;;;4887539;29;20040;-93
2022/12/24 11:37:23;;;;;;;16.33;14.25;;;16.60;99.90;;;;;;4903598;29;20075;-94
2022/12/24 11:39:57;;;;;;;18.92;14.60;;;16.70;99.90;;;;;;4919189;29;20038;-93
2022/12/24 11:42:39;;;;;;;16.25;14.43;;;16.80;99.90;;;;;;4902380;29;20044;-92
2022/12/24 11:45:14;;;;;;;15.35;13.82;;;16.80;99.90;;;;;;4918814;29;20032;-92
2022/12/24 11:47:41;;;;;;;16.10;14.52;;;16.80;99.90;;;;;;4918997;29;20042;-93
2022/12/24 11:50:35;;;;;;;20.55;15.60;;;16.70;99.90;;;;;;4887790;29;20119;-92
2022/12/24 11:53:02;;;;;;;17.65;15.52;;;16.80;99.90;;;;;;4887457;29;20036;-92
2022/12/24 11:55:46;;;;;;;17.67;15.73;;;16.80;99.90;;;;;;4918943;29;20029;-94
2022/12/24 11:58:25;;;;;;;17.27;14.63;;;16.80;99.90;;;;;;4907802;29;20542;-92
2022/12/24 12:01:09;;;;;;;19.00;15.50;;;17.00;99.90;;;;;;4918516;29;20068;-93
2022/12/24 12:03:47;;;;;;;15.30;13.88;;;17.00;99.90;;;;;;4918643;29;20058;-94
2022/12/24 22:38:08;;;;;;;391.63;149.05;;;9.50;99.90;;;;;;6013528;23;20022;31
2022/12/24 23:42:56;;;;;;;303.73;127.28;;;9.40;99.90;;;;;;6039875;23;21003;-93
2022/12/24 23:45:36;;;;;;;256.98;111.82;;;9.40;99.90;;;;;;4897172;29;20045;-92
